sensor_id;sensor_type;location;lat;lon;timestamp;P1;durP1;ratioP1;P2;durP2;ratioP2
37771;SDS011;23610;59.380;24.642;2024-02-26T00:04:33;9.90;;;5.32;;
37771;SDS011;23610;59.380;24.642;2024-02-26T00:09:49;13.13;;;5.68;;
37771;SDS011;23610;59.380;24.642;2024-02-26T00:15:19;22.65;;;6.88;;
37771;SDS011;23610;59.380;24.642;2024-02-26T00:20:35;30.98;;;5.68;;
37771;SDS011;23610;59.380;24.642;2024-02-26T00:26:05;14.35;;;5.68;;
37771;SDS011;23610;59.380;24.642;2024-02-26T00:31:22;13.65;;;5.82;;
37771;SDS011;23610;59.380;24.642;2024-02-26T00:36:52;11.80;;;6.35;;
37771;SDS011;23610;59.380;24.642;2024-02-26T00:42:08;33.35;;;6.03;;
37771;SDS011;23610;59.380;24.642;2024-02-26T00:47:38;10.73;;;5.05;;
37771;SDS011;23610;59.380;24.642;2024-02-26T00:52:55;10.02;;;5.75;;
37771;SDS011;23610;59.380;24.642;2024-02-26T00:58:25;13.90;;;5.82;;
37771;SDS011;23610;59.380;24.642;2024-02-26T01:03:41;17.77;;;5.60;;
37771;SDS011;23610;59.380;24.642;2024-02-26T01:09:11;15.32;;;5.70;;
37771;SDS011;23610;59.380;24.642;2024-02-26T01:14:27;12.07;;;4.80;;
37771;SDS011;23610;59.380;24.642;2024-02-26T01:19:57;9.45;;;5.25;;
37771;SDS011;23610;59.380;24.642;2024-02-26T01:25:13;9.40;;;4.68;;
37771;SDS011;23610;59.380;24.642;2024-02-26T01:30:43;14.90;;;5.47;;
37771;SDS011;23610;59.380;24.642;2024-02-26T01:35:59;12.68;;;5.18;;
37771;SDS011;23610;59.380;24.642;2024-02-26T01:41:29;17.35;;;6.60;;
37771;SDS011;23610;59.380;24.642;2024-02-26T01:46:59;19.05;;;5.55;;
37771;SDS011;23610;59.380;24.642;2024-02-26T01:52:17;8.02;;;4.22;;
37771;SDS011;23610;59.380;24.642;2024-02-26T01:57:48;6.80;;;4.18;;
37771;SDS011;23610;59.380;24.642;2024-02-26T02:03:13;12.88;;;4.90;;
37771;SDS011;23610;59.380;24.642;2024-02-26T02:08:43;20.52;;;5.22;;
37771;SDS011;23610;59.380;24.642;2024-02-26T02:13:59;8.35;;;5.03;;
37771;SDS011;23610;59.380;24.642;2024-02-26T02:19:29;16.25;;;5.00;;
37771;SDS011;23610;59.380;24.642;2024-02-26T02:24:45;13.25;;;4.53;;
37771;SDS011;23610;59.380;24.642;2024-02-26T02:30:15;11.13;;;4.55;;
37771;SDS011;23610;59.380;24.642;2024-02-26T02:35:31;20.05;;;4.70;;
37771;SDS011;23610;59.380;24.642;2024-02-26T02:41:04;14.77;;;5.15;;
37771;SDS011;23610;59.380;24.642;2024-02-26T02:46:20;16.88;;;4.75;;
37771;SDS011;23610;59.380;24.642;2024-02-26T02:51:50;12.82;;;5.50;;
37771;SDS011;23610;59.380;24.642;2024-02-26T02:57:07;15.10;;;5.43;;
37771;SDS011;23610;59.380;24.642;2024-02-26T03:02:37;8.40;;;4.70;;
37771;SDS011;23610;59.380;24.642;2024-02-26T03:07:53;7.90;;;4.78;;
37771;SDS011;23610;59.380;24.642;2024-02-26T03:13:23;17.85;;;5.68;;
37771;SDS011;23610;59.380;24.642;2024-02-26T03:18:39;13.48;;;4.63;;
37771;SDS011;23610;59.380;24.642;2024-02-26T03:24:09;14.75;;;6.32;;
37771;SDS011;23610;59.380;24.642;2024-02-26T03:29:25;9.32;;;5.00;;
37771;SDS011;23610;59.380;24.642;2024-02-26T03:34:55;10.70;;;5.72;;
37771;SDS011;23610;59.380;24.642;2024-02-26T03:40:11;8.82;;;5.20;;
37771;SDS011;23610;59.380;24.642;2024-02-26T03:45:41;9.48;;;5.65;;
37771;SDS011;23610;59.380;24.642;2024-02-26T03:50:57;8.95;;;5.15;;
37771;SDS011;23610;59.380;24.642;2024-02-26T03:56:27;12.02;;;6.18;;
37771;SDS011;23610;59.380;24.642;2024-02-26T04:01:46;9.35;;;5.68;;
37771;SDS011;23610;59.380;24.642;2024-02-26T04:07:16;14.00;;;5.53;;
37771;SDS011;23610;59.380;24.642;2024-02-26T04:12:32;20.50;;;6.38;;
37771;SDS011;23610;59.380;24.642;2024-02-26T04:18:02;16.38;;;6.45;;
37771;SDS011;23610;59.380;24.642;2024-02-26T04:23:18;15.25;;;6.20;;
37771;SDS011;23610;59.380;24.642;2024-02-26T04:28:48;15.27;;;6.25;;
37771;SDS011;23610;59.380;24.642;2024-02-26T04:34:04;11.63;;;6.10;;
37771;SDS011;23610;59.380;24.642;2024-02-26T04:39:34;9.82;;;5.85;;
37771;SDS011;23610;59.380;24.642;2024-02-26T04:44:50;15.65;;;6.03;;
37771;SDS011;23610;59.380;24.642;2024-02-26T04:50:20;9.13;;;5.47;;
37771;SDS011;23610;59.380;24.642;2024-02-26T04:55:36;21.63;;;11.35;;
37771;SDS011;23610;59.380;24.642;2024-02-26T05:01:06;49.78;;;26.20;;
37771;SDS011;23610;59.380;24.642;2024-02-26T05:06:24;35.05;;;22.48;;
37771;SDS011;23610;59.380;24.642;2024-02-26T05:11:54;21.80;;;8.52;;
37771;SDS011;23610;59.380;24.642;2024-02-26T05:17:10;25.00;;;12.38;;
37771;SDS011;23610;59.380;24.642;2024-02-26T05:22:40;24.75;;;13.32;;
37771;SDS011;23610;59.380;24.642;2024-02-26T05:27:56;21.80;;;11.75;;
37771;SDS011;23610;59.380;24.642;2024-02-26T05:33:26;47.72;;;24.90;;
37771;SDS011;23610;59.380;24.642;2024-02-26T05:38:42;28.33;;;15.65;;
37771;SDS011;23610;59.380;24.642;2024-02-26T05:44:12;38.28;;;21.02;;
37771;SDS011;23610;59.380;24.642;2024-02-26T05:49:29;60.10;;;33.38;;
37771;SDS011;23610;59.380;24.642;2024-02-26T05:54:59;14.63;;;10.75;;
37771;SDS011;23610;59.380;24.642;2024-02-26T06:00:15;15.07;;;7.30;;
37771;SDS011;23610;59.380;24.642;2024-02-26T06:05:45;15.43;;;8.20;;
37771;SDS011;23610;59.380;24.642;2024-02-26T06:11:04;22.42;;;8.43;;
37771;SDS011;23610;59.380;24.642;2024-02-26T06:16:35;25.30;;;14.02;;
37771;SDS011;23610;59.380;24.642;2024-02-26T06:21:51;18.63;;;9.30;;
37771;SDS011;23610;59.380;24.642;2024-02-26T06:27:21;15.20;;;7.03;;
37771;SDS011;23610;59.380;24.642;2024-02-26T06:32:37;15.20;;;8.63;;
37771;SDS011;23610;59.380;24.642;2024-02-26T06:38:07;13.90;;;9.25;;
37771;SDS011;23610;59.380;24.642;2024-02-26T06:43:23;24.52;;;12.20;;
37771;SDS011;23610;59.380;24.642;2024-02-26T06:48:53;22.23;;;9.40;;
37771;SDS011;23610;59.380;24.642;2024-02-26T06:54:09;17.75;;;10.60;;
37771;SDS011;23610;59.380;24.642;2024-02-26T06:59:39;50.25;;;20.90;;
37771;SDS011;23610;59.380;24.642;2024-02-26T07:04:55;24.27;;;13.75;;
37771;SDS011;23610;59.380;24.642;2024-02-26T07:10:25;12.60;;;6.20;;
37771;SDS011;23610;59.380;24.642;2024-02-26T07:15:41;10.93;;;6.93;;
37771;SDS011;23610;59.380;24.642;2024-02-26T07:21:11;12.15;;;6.70;;
37771;SDS011;23610;59.380;24.642;2024-02-26T07:26:30;11.50;;;7.10;;
37771;SDS011;23610;59.380;24.642;2024-02-26T07:32:00;22.75;;;10.52;;
37771;SDS011;23610;59.380;24.642;2024-02-26T07:37:16;20.55;;;11.20;;
37771;SDS011;23610;59.380;24.642;2024-02-26T07:42:46;14.85;;;10.00;;
37771;SDS011;23610;59.380;24.642;2024-02-26T07:48:02;22.63;;;12.20;;
37771;SDS011;23610;59.380;24.642;2024-02-26T07:53:32;10.65;;;7.90;;
37771;SDS011;23610;59.380;24.642;2024-02-26T07:58:48;27.88;;;13.02;;
37771;SDS011;23610;59.380;24.642;2024-02-26T08:04:18;13.80;;;7.63;;
37771;SDS011;23610;59.380;24.642;2024-02-26T08:09:34;10.98;;;6.32;;
37771;SDS011;23610;59.380;24.642;2024-02-26T08:15:06;14.88;;;9.98;;
37771;SDS011;23610;59.380;24.642;2024-02-26T08:20:23;11.07;;;4.45;;
37771;SDS011;23610;59.380;24.642;2024-02-26T08:25:53;17.90;;;8.38;;
37771;SDS011;23610;59.380;24.642;2024-02-26T08:31:09;9.13;;;4.88;;
37771;SDS011;23610;59.380;24.642;2024-02-26T08:36:39;9.05;;;5.80;;
37771;SDS011;23610;59.380;24.642;2024-02-26T08:41:55;12.63;;;6.20;;
37771;SDS011;23610;59.380;24.642;2024-02-26T08:47:25;8.02;;;5.15;;
37771;SDS011;23610;59.380;24.642;2024-02-26T08:52:41;8.10;;;5.78;;
37771;SDS011;23610;59.380;24.642;2024-02-26T08:58:12;23.58;;;12.43;;
37771;SDS011;23610;59.380;24.642;2024-02-26T09:03:28;7.18;;;4.90;;
37771;SDS011;23610;59.380;24.642;2024-02-26T09:08:58;7.72;;;3.67;;
37771;SDS011;23610;59.380;24.642;2024-02-26T09:14:14;8.13;;;4.60;;
37771;SDS011;23610;59.380;24.642;2024-02-26T09:19:47;8.57;;;4.20;;
37771;SDS011;23610;59.380;24.642;2024-02-26T09:25:04;6.82;;;4.72;;
37771;SDS011;23610;59.380;24.642;2024-02-26T09:30:34;8.27;;;4.35;;
37771;SDS011;23610;59.380;24.642;2024-02-26T09:35:50;5.13;;;3.42;;
37771;SDS011;23610;59.380;24.642;2024-02-26T09:41:20;7.90;;;4.30;;
37771;SDS011;23610;59.380;24.642;2024-02-26T09:46:36;8.38;;;3.63;;
37771;SDS011;23610;59.380;24.642;2024-02-26T09:52:06;4.68;;;3.55;;
37771;SDS011;23610;59.380;24.642;2024-02-26T09:57:24;6.82;;;4.00;;
37771;SDS011;23610;59.380;24.642;2024-02-26T10:02:54;5.20;;;3.63;;
37771;SDS011;23610;59.380;24.642;2024-02-26T10:08:12;6.13;;;3.85;;
37771;SDS011;23610;59.380;24.642;2024-02-26T10:13:43;4.00;;;2.47;;
37771;SDS011;23610;59.380;24.642;2024-02-26T10:18:59;5.47;;;3.20;;
37771;SDS011;23610;59.380;24.642;2024-02-26T10:24:29;5.68;;;3.63;;
37771;SDS011;23610;59.380;24.642;2024-02-26T10:29:46;4.78;;;3.40;;
37771;SDS011;23610;59.380;24.642;2024-02-26T10:35:16;4.18;;;3.15;;
37771;SDS011;23610;59.380;24.642;2024-02-26T10:40:34;5.97;;;3.70;;
37771;SDS011;23610;59.380;24.642;2024-02-26T10:46:04;6.55;;;3.88;;
37771;SDS011;23610;59.380;24.642;2024-02-26T10:51:28;15.00;;;6.10;;
37771;SDS011;23610;59.380;24.642;2024-02-26T10:56:59;9.90;;;4.80;;
37771;SDS011;23610;59.380;24.642;2024-02-26T11:02:17;7.07;;;4.22;;
37771;SDS011;23610;59.380;24.642;2024-02-26T11:07:47;9.75;;;4.30;;
37771;SDS011;23610;59.380;24.642;2024-02-26T11:13:05;6.07;;;3.83;;
37771;SDS011;23610;59.380;24.642;2024-02-26T11:18:37;10.68;;;5.25;;
37771;SDS011;23610;59.380;24.642;2024-02-26T11:23:56;6.50;;;4.70;;
37771;SDS011;23610;59.380;24.642;2024-02-26T11:29:27;11.25;;;6.55;;
37771;SDS011;23610;59.380;24.642;2024-02-26T11:35:04;12.17;;;7.50;;
37771;SDS011;23610;59.380;24.642;2024-02-26T11:40:37;22.65;;;13.23;;
37771;SDS011;23610;59.380;24.642;2024-02-26T11:45:57;47.20;;;17.85;;
37771;SDS011;23610;59.380;24.642;2024-02-26T11:51:33;17.40;;;10.85;;
37771;SDS011;23610;59.380;24.642;2024-02-26T11:56:50;23.15;;;11.68;;
37771;SDS011;23610;59.380;24.642;2024-02-26T12:08:02;14.93;;;6.32;;
37771;SDS011;23610;59.380;24.642;2024-02-26T12:13:37;21.27;;;8.35;;
37771;SDS011;23610;59.380;24.642;2024-02-26T12:18:53;31.10;;;18.10;;
37771;SDS011;23610;59.380;24.642;2024-02-26T12:24:23;19.15;;;8.65;;
37771;SDS011;23610;59.380;24.642;2024-02-26T12:29:39;16.92;;;11.13;;
37771;SDS011;23610;59.380;24.642;2024-02-26T12:35:09;15.77;;;7.75;;
37771;SDS011;23610;59.380;24.642;2024-02-26T12:40:25;9.40;;;6.82;;
37771;SDS011;23610;59.380;24.642;2024-02-26T12:45:55;13.00;;;6.03;;
37771;SDS011;23610;59.380;24.642;2024-02-26T12:51:11;22.15;;;12.13;;
37771;SDS011;23610;59.380;24.642;2024-02-26T12:56:44;22.35;;;10.02;;
37771;SDS011;23610;59.380;24.642;2024-02-26T13:02:00;20.58;;;7.78;;
37771;SDS011;23610;59.380;24.642;2024-02-26T13:07:30;54.63;;;9.48;;
37771;SDS011;23610;59.380;24.642;2024-02-26T13:12:47;8.05;;;5.57;;
37771;SDS011;23610;59.380;24.642;2024-02-26T13:18:18;12.35;;;5.40;;
37771;SDS011;23610;59.380;24.642;2024-02-26T13:23:34;21.13;;;9.15;;
37771;SDS011;23610;59.380;24.642;2024-02-26T13:29:04;36.30;;;14.00;;
37771;SDS011;23610;59.380;24.642;2024-02-26T13:34:24;35.33;;;10.63;;
37771;SDS011;23610;59.380;24.642;2024-02-26T13:39:58;49.40;;;25.95;;
37771;SDS011;23610;59.380;24.642;2024-02-26T13:45:14;63.55;;;20.35;;
37771;SDS011;23610;59.380;24.642;2024-02-26T13:50:46;47.95;;;14.55;;
37771;SDS011;23610;59.380;24.642;2024-02-26T13:56:16;20.80;;;11.48;;
37771;SDS011;23610;59.380;24.642;2024-02-26T14:01:32;25.70;;;8.98;;
37771;SDS011;23610;59.380;24.642;2024-02-26T14:07:02;40.95;;;11.93;;
37771;SDS011;23610;59.380;24.642;2024-02-26T14:12:19;55.60;;;10.23;;
37771;SDS011;23610;59.380;24.642;2024-02-26T14:17:49;71.30;;;9.25;;
37771;SDS011;23610;59.380;24.642;2024-02-26T14:23:09;7.00;;;4.28;;
37771;SDS011;23610;59.380;24.642;2024-02-26T14:28:39;6.95;;;4.47;;
37771;SDS011;23610;59.380;24.642;2024-02-26T14:33:55;7.28;;;4.68;;
37771;SDS011;23610;59.380;24.642;2024-02-26T14:39:25;10.93;;;5.80;;
37771;SDS011;23610;59.380;24.642;2024-02-26T14:44:48;13.30;;;4.82;;
37771;SDS011;23610;59.380;24.642;2024-02-26T14:50:04;10.13;;;5.60;;
37771;SDS011;23610;59.380;24.642;2024-02-26T14:55:34;8.80;;;5.25;;
37771;SDS011;23610;59.380;24.642;2024-02-26T15:00:51;5.60;;;4.07;;
37771;SDS011;23610;59.380;24.642;2024-02-26T15:06:21;16.25;;;5.53;;
37771;SDS011;23610;59.380;24.642;2024-02-26T15:11:37;7.35;;;4.68;;
37771;SDS011;23610;59.380;24.642;2024-02-26T15:17:08;8.35;;;5.25;;
37771;SDS011;23610;59.380;24.642;2024-02-26T15:22:25;8.65;;;5.07;;
37771;SDS011;23610;59.380;24.642;2024-02-26T15:27:55;10.27;;;5.55;;
37771;SDS011;23610;59.380;24.642;2024-02-26T15:33:25;6.53;;;5.43;;
37771;SDS011;23610;59.380;24.642;2024-02-26T15:38:55;6.78;;;4.97;;
37771;SDS011;23610;59.380;24.642;2024-02-26T15:44:12;7.68;;;5.07;;
37771;SDS011;23610;59.380;24.642;2024-02-26T15:49:42;27.13;;;13.38;;
37771;SDS011;23610;59.380;24.642;2024-02-26T15:54:58;36.08;;;15.65;;
37771;SDS011;23610;59.380;24.642;2024-02-26T16:00:32;121.57;;;34.83;;
37771;SDS011;23610;59.380;24.642;2024-02-26T16:05:48;50.08;;;12.93;;
37771;SDS011;23610;59.380;24.642;2024-02-26T16:11:18;40.55;;;9.85;;
37771;SDS011;23610;59.380;24.642;2024-02-26T16:16:34;179.65;;;53.17;;
37771;SDS011;23610;59.380;24.642;2024-02-26T16:22:05;71.32;;;23.58;;
37771;SDS011;23610;59.380;24.642;2024-02-26T16:27:21;80.20;;;21.40;;
37771;SDS011;23610;59.380;24.642;2024-02-26T16:32:51;72.32;;;22.17;;
37771;SDS011;23610;59.380;24.642;2024-02-26T16:38:07;68.00;;;29.35;;
37771;SDS011;23610;59.380;24.642;2024-02-26T16:43:37;44.22;;;14.43;;
37771;SDS011;23610;59.380;24.642;2024-02-26T16:48:53;48.13;;;11.68;;
37771;SDS011;23610;59.380;24.642;2024-02-26T16:54:23;45.75;;;14.40;;
37771;SDS011;23610;59.380;24.642;2024-02-26T16:59:39;29.90;;;10.05;;
37771;SDS011;23610;59.380;24.642;2024-02-26T17:05:09;56.70;;;5.70;;
37771;SDS011;23610;59.380;24.642;2024-02-26T17:10:25;65.57;;;5.68;;
37771;SDS011;23610;59.380;24.642;2024-02-26T17:15:56;60.17;;;8.60;;
37771;SDS011;23610;59.380;24.642;2024-02-26T17:21:16;48.80;;;6.40;;
37771;SDS011;23610;59.380;24.642;2024-02-26T17:26:46;58.65;;;9.60;;
37771;SDS011;23610;59.380;24.642;2024-02-26T17:32:02;70.70;;;11.95;;
37771;SDS011;23610;59.380;24.642;2024-02-26T17:37:32;50.08;;;10.55;;
37771;SDS011;23610;59.380;24.642;2024-02-26T17:42:48;62.72;;;10.35;;
37771;SDS011;23610;59.380;24.642;2024-02-26T17:48:18;48.83;;;5.70;;
37771;SDS011;23610;59.380;24.642;2024-02-26T17:53:38;60.65;;;12.40;;
37771;SDS011;23610;59.380;24.642;2024-02-26T17:59:08;35.20;;;9.00;;
37771;SDS011;23610;59.380;24.642;2024-02-26T18:04:24;30.10;;;8.60;;
37771;SDS011;23610;59.380;24.642;2024-02-26T18:09:54;9.40;;;4.97;;
37771;SDS011;23610;59.380;24.642;2024-02-26T18:15:10;10.60;;;7.07;;
37771;SDS011;23610;59.380;24.642;2024-02-26T18:20:40;7.78;;;5.40;;
37771;SDS011;23610;59.380;24.642;2024-02-26T18:25:56;5.72;;;3.60;;
37771;SDS011;23610;59.380;24.642;2024-02-26T18:31:27;5.75;;;3.92;;
37771;SDS011;23610;59.380;24.642;2024-02-26T18:36:44;9.25;;;3.75;;
37771;SDS011;23610;59.380;24.642;2024-02-26T18:42:14;5.28;;;3.13;;
37771;SDS011;23610;59.380;24.642;2024-02-26T18:47:31;3.70;;;3.03;;
37771;SDS011;23610;59.380;24.642;2024-02-26T18:53:01;3.53;;;3.22;;
37771;SDS011;23610;59.380;24.642;2024-02-26T18:58:17;5.95;;;4.05;;
37771;SDS011;23610;59.380;24.642;2024-02-26T19:03:47;3.63;;;2.58;;
37771;SDS011;23610;59.380;24.642;2024-02-26T19:09:03;3.22;;;2.05;;
37771;SDS011;23610;59.380;24.642;2024-02-26T19:14:33;4.82;;;2.40;;
37771;SDS011;23610;59.380;24.642;2024-02-26T19:19:49;2.90;;;2.03;;
37771;SDS011;23610;59.380;24.642;2024-02-26T19:25:19;2.05;;;1.75;;
37771;SDS011;23610;59.380;24.642;2024-02-26T19:30:35;3.13;;;2.47;;
37771;SDS011;23610;59.380;24.642;2024-02-26T19:36:05;4.78;;;3.13;;
37771;SDS011;23610;59.380;24.642;2024-02-26T19:41:22;4.05;;;3.72;;
37771;SDS011;23610;59.380;24.642;2024-02-26T19:46:52;11.35;;;6.78;;
37771;SDS011;23610;59.380;24.642;2024-02-26T19:52:08;21.95;;;12.82;;
37771;SDS011;23610;59.380;24.642;2024-02-26T19:57:39;10.60;;;6.85;;
37771;SDS011;23610;59.380;24.642;2024-02-26T20:02:55;4.28;;;3.88;;
37771;SDS011;23610;59.380;24.642;2024-02-26T20:08:25;8.38;;;6.15;;
37771;SDS011;23610;59.380;24.642;2024-02-26T20:13:41;4.28;;;3.08;;
37771;SDS011;23610;59.380;24.642;2024-02-26T20:19:11;3.53;;;2.78;;
37771;SDS011;23610;59.380;24.642;2024-02-26T20:24:27;4.90;;;2.88;;
37771;SDS011;23610;59.380;24.642;2024-02-26T20:29:57;5.88;;;3.80;;
37771;SDS011;23610;59.380;24.642;2024-02-26T20:35:13;6.05;;;4.18;;
37771;SDS011;23610;59.380;24.642;2024-02-26T20:40:43;6.88;;;4.97;;
37771;SDS011;23610;59.380;24.642;2024-02-26T20:46:05;7.18;;;5.35;;
37771;SDS011;23610;59.380;24.642;2024-02-26T20:51:36;8.85;;;6.72;;
37771;SDS011;23610;59.380;24.642;2024-02-26T20:56:53;8.77;;;6.13;;
37771;SDS011;23610;59.380;24.642;2024-02-26T21:02:23;7.15;;;4.40;;
37771;SDS011;23610;59.380;24.642;2024-02-26T21:07:47;3.75;;;3.13;;
37771;SDS011;23610;59.380;24.642;2024-02-26T21:13:17;2.42;;;2.22;;
37771;SDS011;23610;59.380;24.642;2024-02-26T21:18:33;2.50;;;2.10;;
37771;SDS011;23610;59.380;24.642;2024-02-26T21:24:04;4.15;;;2.40;;
37771;SDS011;23610;59.380;24.642;2024-02-26T21:29:20;2.47;;;2.00;;
37771;SDS011;23610;59.380;24.642;2024-02-26T21:34:49;14.43;;;7.88;;
37771;SDS011;23610;59.380;24.642;2024-02-26T21:40:06;4.07;;;3.25;;
37771;SDS011;23610;59.380;24.642;2024-02-26T21:45:35;4.03;;;3.53;;
37771;SDS011;23610;59.380;24.642;2024-02-26T21:50:52;4.97;;;3.70;;
37771;SDS011;23610;59.380;24.642;2024-02-26T21:56:24;6.10;;;3.72;;
37771;SDS011;23610;59.380;24.642;2024-02-26T22:01:41;3.22;;;2.55;;
37771;SDS011;23610;59.380;24.642;2024-02-26T22:07:10;3.35;;;2.60;;
37771;SDS011;23610;59.380;24.642;2024-02-26T22:12:27;8.88;;;3.50;;
37771;SDS011;23610;59.380;24.642;2024-02-26T22:17:57;10.98;;;3.78;;
37771;SDS011;23610;59.380;24.642;2024-02-26T22:23:15;10.00;;;4.90;;
37771;SDS011;23610;59.380;24.642;2024-02-26T22:28:45;12.40;;;7.65;;
37771;SDS011;23610;59.380;24.642;2024-02-26T22:34:04;7.80;;;5.85;;
37771;SDS011;23610;59.380;24.642;2024-02-26T22:39:33;7.40;;;4.25;;
37771;SDS011;23610;59.380;24.642;2024-02-26T22:44:50;3.40;;;2.08;;
37771;SDS011;23610;59.380;24.642;2024-02-26T22:50:19;7.22;;;2.78;;
37771;SDS011;23610;59.380;24.642;2024-02-26T22:55:36;6.15;;;2.05;;
37771;SDS011;23610;59.380;24.642;2024-02-26T23:01:13;13.55;;;3.65;;
37771;SDS011;23610;59.380;24.642;2024-02-26T23:06:29;14.88;;;3.58;;
37771;SDS011;23610;59.380;24.642;2024-02-26T23:11:58;14.45;;;2.63;;
37771;SDS011;23610;59.380;24.642;2024-02-26T23:17:15;19.58;;;3.13;;
37771;SDS011;23610;59.380;24.642;2024-02-26T23:22:45;9.20;;;3.42;;
37771;SDS011;23610;59.380;24.642;2024-02-26T23:28:03;15.75;;;2.88;;
37771;SDS011;23610;59.380;24.642;2024-02-26T23:33:33;37.13;;;2.50;;
37771;SDS011;23610;59.380;24.642;2024-02-26T23:38:50;35.92;;;2.85;;
37771;SDS011;23610;59.380;24.642;2024-02-26T23:44:21;29.48;;;3.08;;
37771;SDS011;23610;59.380;24.642;2024-02-26T23:49:38;24.33;;;3.40;;
37771;SDS011;23610;59.380;24.642;2024-02-26T23:55:07;27.00;;;3.28;;
